createdAt,value
2019-04-05T00:02:10.846Z,27.58
2019-04-05T00:04:41.199Z,30.23
2019-04-05T00:07:11.545Z,34.60
2019-04-05T00:09:43.019Z,32.45
2019-04-05T00:12:13.356Z,36.88
2019-04-05T00:14:43.725Z,35.00
2019-04-05T00:17:14.040Z,54.13
2019-04-05T00:19:44.405Z,58.08
2019-04-05T00:22:14.742Z,57.80
2019-04-05T00:24:45.161Z,68.70
2019-04-05T00:27:15.528Z,70.05
2019-04-05T00:29:45.874Z,76.42
2019-04-05T00:32:16.273Z,83.30
2019-04-05T00:34:46.626Z,74.62
2019-04-05T00:37:16.989Z,77.50
2019-04-05T00:39:47.357Z,84.95
2019-04-05T00:42:17.659Z,85.17
2019-04-05T00:44:48.073Z,86.00
2019-04-05T00:47:18.386Z,81.55
2019-04-05T00:49:48.742Z,80.50
2019-04-05T00:52:19.052Z,87.57
2019-04-05T00:54:49.405Z,91.53
2019-04-05T00:57:19.741Z,85.65
2019-04-05T00:59:50.094Z,83.22
2019-04-05T01:02:20.426Z,80.03
2019-04-05T01:04:50.807Z,83.60
2019-04-05T01:07:21.123Z,82.65
2019-04-05T01:09:51.482Z,94.05
2019-04-05T01:12:23.446Z,88.07
2019-04-05T01:14:55.496Z,89.83
2019-04-05T01:17:25.959Z,92.40
2019-04-05T01:19:59.716Z,92.72
2019-04-05T01:22:31.507Z,88.10
2019-04-05T01:25:02.091Z,94.00
2019-04-05T01:27:35.073Z,91.25
2019-04-05T01:30:05.983Z,83.03
2019-04-05T01:32:37.269Z,90.57
2019-04-05T01:35:07.721Z,93.95
2019-04-05T01:37:38.539Z,95.53
2019-04-05T01:40:09.513Z,88.45
2019-04-05T01:42:40.129Z,92.27
2019-04-05T01:45:10.777Z,85.77
2019-04-05T01:47:41.587Z,87.30
2019-04-05T01:50:12.260Z,96.25
2019-04-05T01:52:43.410Z,87.92
2019-04-05T01:55:14.133Z,96.97
2019-04-05T01:57:44.462Z,88.17
2019-04-05T02:00:15.216Z,84.30
2019-04-05T02:02:45.698Z,92.02
2019-04-05T02:05:16.252Z,97.67
2019-04-05T02:07:46.732Z,95.65
2019-04-05T02:10:17.299Z,92.72
2019-04-05T02:12:47.647Z,96.53
2019-04-05T02:15:28.143Z,87.82
2019-04-05T02:17:58.772Z,90.50
2019-04-05T02:20:29.420Z,99.72
2019-04-05T02:22:59.846Z,96.70
2019-04-05T02:25:30.217Z,94.42
2019-04-05T02:28:00.541Z,91.57
2019-04-05T02:30:31.156Z,95.03
2019-04-05T02:33:01.482Z,95.25
2019-04-05T02:35:31.849Z,95.53
2019-04-05T02:38:02.221Z,87.20
2019-04-05T02:40:34.637Z,101.50
2019-04-05T02:43:07.460Z,99.30
2019-04-05T02:45:40.356Z,90.42
2019-04-05T02:48:13.562Z,97.97
2019-04-05T02:50:47.122Z,95.87
2019-04-05T02:53:19.967Z,95.17
2019-04-05T02:55:51.225Z,94.87
2019-04-05T02:58:23.507Z,96.02
2019-04-05T03:00:54.562Z,101.87
2019-04-05T03:03:25.090Z,99.13
2019-04-05T03:05:55.910Z,108.27
2019-04-05T03:08:26.211Z,99.25
2019-04-05T03:11:04.966Z,95.10
2019-04-05T03:13:42.155Z,102.30
2019-04-05T03:16:17.539Z,105.97
2019-04-05T03:18:52.638Z,103.27
2019-04-05T03:21:26.328Z,99.80
2019-04-05T03:23:59.115Z,104.87
2019-04-05T03:26:32.380Z,101.42
2019-04-05T03:29:06.075Z,102.15
2019-04-05T03:31:36.760Z,104.85
2019-04-05T03:34:07.834Z,110.20
2019-04-05T03:36:39.335Z,111.70
2019-04-05T03:39:10.396Z,107.87
2019-04-05T03:41:40.811Z,102.90
2019-04-05T03:44:11.937Z,105.43
2019-04-05T03:46:55.713Z,109.67
2019-04-05T03:49:14.411Z,103.10
2019-04-05T03:51:45.857Z,107.83
2019-04-05T03:54:16.301Z,113.42
2019-04-05T03:56:46.809Z,100.10
2019-04-05T03:59:17.204Z,108.30
2019-04-05T04:01:47.567Z,109.12
2019-04-05T04:04:18.072Z,103.80
2019-04-05T04:06:48.522Z,111.20
2019-04-05T04:09:19.086Z,122.90
2019-04-05T04:11:49.568Z,100.62
2019-04-05T04:14:20.390Z,115.10
2019-04-05T04:16:50.875Z,108.65
2019-04-05T04:19:21.333Z,115.67
2019-04-05T04:22:13.388Z,116.35
2019-04-05T04:24:44.045Z,108.75
2019-04-05T04:27:14.500Z,120.28
2019-04-05T04:29:45.206Z,103.05
2019-04-05T04:32:16.155Z,111.40
2019-04-05T04:34:46.418Z,107.32
2019-04-05T04:37:17.033Z,115.80
2019-04-05T04:39:47.380Z,111.47
2019-04-05T04:42:18.104Z,110.00
2019-04-05T04:44:48.602Z,108.75
2019-04-05T04:47:26.474Z,120.87
2019-04-05T04:49:51.082Z,113.30
2019-04-05T04:52:21.644Z,116.03
2019-04-05T04:54:51.991Z,117.90
2019-04-05T04:57:22.360Z,113.77
2019-04-05T04:59:52.894Z,105.40
2019-04-05T05:02:23.358Z,114.05
2019-04-05T05:04:53.826Z,105.72
2019-04-05T05:07:24.424Z,110.25
2019-04-05T05:09:54.972Z,116.30
2019-04-05T05:12:26.228Z,109.60
2019-04-05T05:14:56.771Z,107.92
2019-04-05T05:17:37.904Z,116.20
2019-04-05T05:19:59.616Z,119.55
2019-04-05T05:22:32.744Z,111.40
2019-04-05T05:25:03.976Z,111.28
2019-04-05T05:27:34.573Z,115.05
2019-04-05T05:30:06.445Z,109.78
2019-04-05T05:32:36.947Z,117.77
2019-04-05T05:35:07.614Z,118.25
2019-04-05T05:37:38.066Z,117.62
2019-04-05T05:40:09.792Z,121.15
2019-04-05T05:42:40.173Z,111.28
2019-04-05T05:45:10.798Z,110.00
2019-04-05T05:47:51.024Z,120.72
2019-04-05T05:50:14.366Z,113.22
2019-04-05T05:52:44.959Z,116.77
2019-04-05T05:55:15.286Z,110.88
2019-04-05T05:57:45.646Z,107.92
2019-04-05T06:00:19.059Z,113.88
2019-04-05T06:02:49.419Z,119.40
2019-04-05T06:05:19.745Z,113.57
2019-04-05T06:07:50.128Z,111.45
2019-04-05T06:10:20.542Z,108.00
2019-04-05T06:12:50.920Z,121.20
2019-04-05T06:15:21.215Z,108.30
2019-04-05T06:18:03.854Z,96.95
2019-04-05T06:20:23.514Z,112.35
2019-04-05T06:22:53.880Z,101.18
2019-04-05T06:25:24.219Z,107.07
2019-04-05T06:27:55.468Z,100.15
2019-04-05T06:30:28.626Z,107.07
2019-04-05T06:32:57.845Z,105.32
2019-04-05T06:35:28.146Z,102.27
2019-04-05T06:37:58.514Z,99.30
2019-04-05T06:40:40.199Z,104.70
2019-04-05T06:43:02.389Z,103.22
2019-04-05T06:45:32.702Z,97.30
2019-04-05T06:48:03.061Z,101.33
2019-04-05T06:50:33.377Z,101.02
2019-04-05T06:53:03.711Z,94.28
2019-04-05T06:55:35.160Z,98.62
2019-04-05T06:58:05.471Z,101.25
2019-04-05T07:00:35.813Z,101.80
2019-04-05T07:03:06.175Z,102.95
2019-04-05T07:05:36.467Z,114.85
2019-04-05T07:08:06.805Z,100.53
2019-04-05T07:10:37.748Z,103.05
2019-04-05T07:13:08.125Z,97.88
2019-04-05T07:15:38.516Z,100.47
2019-04-05T07:18:09.118Z,103.45
2019-04-05T07:20:39.520Z,100.72
2019-04-05T07:23:09.866Z,102.50
2019-04-05T07:25:40.165Z,107.32
2019-04-05T07:28:10.514Z,105.00
2019-04-05T07:30:40.824Z,94.90
2019-04-05T07:33:11.203Z,95.87
2019-04-05T07:35:41.500Z,95.50
2019-04-05T07:38:11.905Z,96.80
2019-04-05T07:40:43.748Z,101.55
2019-04-05T07:43:14.088Z,100.82
2019-04-05T07:45:45.934Z,100.80
2019-04-05T07:48:16.545Z,100.27
2019-04-05T07:50:46.880Z,97.27
2019-04-05T07:53:17.216Z,99.85
2019-04-05T07:55:47.517Z,102.00
2019-04-05T07:58:17.863Z,99.67
2019-04-05T08:00:50.790Z,101.00
2019-04-05T08:03:21.451Z,91.95
2019-04-05T08:05:52.971Z,91.17
2019-04-05T08:08:46.462Z,100.42
2019-04-05T08:11:17.726Z,92.75
2019-04-05T08:13:50.096Z,94.37
2019-04-05T08:16:20.493Z,94.40
2019-04-05T08:18:57.754Z,92.57
2019-04-05T08:21:22.781Z,95.72
2019-04-05T08:23:53.197Z,93.78
2019-04-05T08:26:23.502Z,85.85
2019-04-05T08:28:53.898Z,96.42
2019-04-05T08:31:24.217Z,88.05
2019-04-05T08:33:54.579Z,91.60
2019-04-05T08:36:24.873Z,84.62
2019-04-05T08:38:55.324Z,97.70
2019-04-05T08:41:25.654Z,90.30
2019-04-05T08:43:56.010Z,79.95
2019-04-05T08:46:26.422Z,83.95
2019-04-05T08:49:09.763Z,75.12
2019-04-05T08:51:28.655Z,81.75
2019-04-05T08:53:59.054Z,77.50
2019-04-05T08:56:29.326Z,80.50
2019-04-05T08:58:59.677Z,80.50
2019-04-05T09:01:30.070Z,74.67
2019-04-05T09:04:00.436Z,81.60
2019-04-05T09:06:30.914Z,74.27
2019-04-05T09:09:01.455Z,83.58
2019-04-05T09:11:33.431Z,80.40
2019-04-05T09:14:03.893Z,78.30
2019-04-05T09:16:34.285Z,77.87
2019-04-05T09:19:04.632Z,85.77
2019-04-05T09:21:35.016Z,73.83
2019-04-05T09:24:05.461Z,75.85
2019-04-05T09:26:35.808Z,72.70
2019-04-05T09:29:09.119Z,72.62
2019-04-05T09:31:38.228Z,81.78
2019-04-05T09:34:08.555Z,67.45
2019-04-05T09:36:38.853Z,76.57
2019-04-05T09:39:15.297Z,70.83
2019-04-05T09:41:43.295Z,69.10
2019-04-05T09:44:13.663Z,71.28
2019-04-05T09:46:47.995Z,78.50
2019-04-05T09:49:15.960Z,73.52
2019-04-05T09:51:46.284Z,67.55
2019-04-05T09:54:16.655Z,74.27
2019-04-05T09:56:46.976Z,73.22
2019-04-05T09:59:17.316Z,68.95
2019-04-05T10:01:47.634Z,69.00
2019-04-05T10:04:17.972Z,65.35
2019-04-05T10:06:48.412Z,68.95
2019-04-05T10:09:18.822Z,66.37
2019-04-05T10:11:49.146Z,64.70
2019-04-05T10:14:19.497Z,65.72
2019-04-05T10:16:49.813Z,70.08
2019-04-05T10:19:20.242Z,66.15
2019-04-05T10:21:50.558Z,64.40
2019-04-05T10:24:20.970Z,66.15
2019-04-05T10:26:51.292Z,66.07
2019-04-05T10:29:21.624Z,62.93
2019-04-05T10:31:52.935Z,63.73
2019-04-05T10:34:23.300Z,55.95
2019-04-05T10:36:53.754Z,62.73
2019-04-05T10:39:24.050Z,61.77
2019-04-05T10:42:03.261Z,58.17
2019-04-05T10:44:26.528Z,54.67
2019-04-05T10:46:56.873Z,58.60
2019-04-05T10:49:27.276Z,53.50
2019-04-05T10:51:57.587Z,54.23
2019-04-05T10:54:27.970Z,53.00
2019-04-05T10:56:58.307Z,53.63
2019-04-05T10:59:28.683Z,56.05
2019-04-05T11:01:59.009Z,51.70
2019-04-05T11:04:29.523Z,52.62
2019-04-05T11:06:59.856Z,54.35
2019-04-05T11:09:30.258Z,50.48
2019-04-05T11:12:00.654Z,51.18
2019-04-05T11:14:31.090Z,51.13
2019-04-05T11:17:04.412Z,50.88
2019-04-05T11:19:36.279Z,48.92
2019-04-05T11:22:05.669Z,45.65
2019-04-05T11:24:36.049Z,46.15
2019-04-05T11:27:06.823Z,42.62
2019-04-05T11:29:37.217Z,44.73
2019-04-05T11:32:07.585Z,43.23
2019-04-05T11:34:37.978Z,42.55
2019-04-05T11:37:08.310Z,43.98
2019-04-05T11:39:38.891Z,43.80
2019-04-05T11:42:09.625Z,47.90
2019-04-05T11:44:41.232Z,45.35
2019-04-05T11:47:11.552Z,42.38
2019-04-05T11:49:45.333Z,44.67
2019-04-05T11:52:15.662Z,46.88
2019-04-05T11:54:46.626Z,46.33
2019-04-05T11:57:18.017Z,47.33
2019-04-05T11:59:48.781Z,48.75
2019-04-05T12:02:37.134Z,48.98
2019-04-05T12:05:08.042Z,50.60
2019-04-05T12:07:38.371Z,48.05
2019-04-05T12:10:09.092Z,49.18
2019-04-05T12:12:39.416Z,48.15
2019-04-05T12:15:10.267Z,53.42
2019-04-05T12:17:40.587Z,56.55
2019-04-05T12:20:11.245Z,61.37
2019-04-05T12:22:41.558Z,53.17
2019-04-05T12:25:11.918Z,50.23
2019-04-05T12:27:42.220Z,52.05
2019-04-05T12:30:15.223Z,49.23
2019-04-05T12:32:46.596Z,52.95
2019-04-05T12:35:21.157Z,49.18
2019-04-05T12:37:50.875Z,51.25
2019-04-05T12:40:21.501Z,48.73
2019-04-05T12:42:53.212Z,47.15
2019-04-05T12:45:23.606Z,46.63
2019-04-05T12:47:53.978Z,44.48
2019-04-05T12:50:24.412Z,45.33
2019-04-05T12:52:56.829Z,51.85
2019-04-05T12:55:26.711Z,46.48
2019-04-05T12:57:57.073Z,45.10
2019-04-05T13:00:27.585Z,47.88
2019-04-05T13:02:57.873Z,46.45
2019-04-05T13:05:28.265Z,52.33
2019-04-05T13:07:58.613Z,52.98
2019-04-05T13:10:30.596Z,49.23
2019-04-05T13:13:01.079Z,47.78
2019-04-05T13:15:31.431Z,52.40
2019-04-05T13:18:01.749Z,47.05
2019-04-05T13:20:32.160Z,44.00
2019-04-05T13:23:06.311Z,49.83
2019-04-05T13:25:34.602Z,46.05
2019-04-05T13:28:13.341Z,47.55
2019-04-05T13:30:37.154Z,54.15
2019-04-05T13:33:11.183Z,44.93
2019-04-05T13:35:42.696Z,35.52
2019-04-05T13:38:13.041Z,37.48
2019-04-05T13:40:43.415Z,35.98
2019-04-05T13:43:13.827Z,30.35
2019-04-05T13:45:44.200Z,29.40
2019-04-05T13:48:14.557Z,33.60
2019-04-05T13:50:44.904Z,30.52
2019-04-05T13:53:15.326Z,25.97
2019-04-05T13:55:47.383Z,41.40
2019-04-05T13:58:17.640Z,45.30
2019-04-05T14:00:48.871Z,42.67
2019-04-05T14:03:20.894Z,47.78
2019-04-05T14:05:54.043Z,42.17
2019-04-05T14:08:23.325Z,47.50
2019-04-05T14:10:53.714Z,46.80
2019-04-05T14:13:23.997Z,42.33
2019-04-05T14:15:54.363Z,44.42
2019-04-05T14:18:25.659Z,43.55
2019-04-05T14:20:56.055Z,44.55
2019-04-05T14:23:26.373Z,42.27
2019-04-05T14:25:59.911Z,42.38
2019-04-05T14:28:29.725Z,40.63
2019-04-05T14:31:02.263Z,38.40
2019-04-05T14:33:31.972Z,37.48
2019-04-05T14:36:02.383Z,37.42
2019-04-05T14:38:32.668Z,35.33
2019-04-05T14:41:03.002Z,39.35
2019-04-05T14:43:33.344Z,36.03
2019-04-05T14:46:03.716Z,35.38
2019-04-05T14:48:34.031Z,38.58
2019-04-05T14:51:04.423Z,39.33
2019-04-05T14:53:34.747Z,34.43
2019-04-05T14:56:05.121Z,33.20
2019-04-05T14:58:35.444Z,29.98
2019-04-05T15:01:05.832Z,31.68
2019-04-05T15:03:36.228Z,29.02
2019-04-05T15:06:06.775Z,24.77
2019-04-05T15:08:37.072Z,28.92
2019-04-05T15:11:07.480Z,30.97
2019-04-05T15:13:37.769Z,30.30
2019-04-05T15:16:08.156Z,27.45
2019-04-05T15:18:38.530Z,27.45
2019-04-05T15:21:08.910Z,25.75
2019-04-05T15:23:41.257Z,26.87
2019-04-05T15:26:11.190Z,33.73
2019-04-05T15:28:41.497Z,28.77
2019-04-05T15:31:11.855Z,34.15
2019-04-05T15:33:42.165Z,35.35
2019-04-05T15:36:12.603Z,34.38
2019-04-05T15:38:42.954Z,33.63
2019-04-05T15:41:13.399Z,31.80
2019-04-05T15:43:43.723Z,29.10
2019-04-05T15:46:14.100Z,32.28
2019-04-05T15:48:44.423Z,30.05
2019-04-05T15:51:14.795Z,27.05
2019-04-05T15:53:45.131Z,25.70
2019-04-05T15:56:15.504Z,25.48
2019-04-05T15:58:45.816Z,23.92
2019-04-05T16:01:16.877Z,25.88
2019-04-05T16:03:47.184Z,29.65
2019-04-05T16:06:17.556Z,26.02
2019-04-05T16:08:47.893Z,26.12
2019-04-05T16:11:18.249Z,20.57
2019-04-05T16:13:48.564Z,22.52
2019-04-05T16:16:18.987Z,24.30
2019-04-05T16:18:49.343Z,21.05
2019-04-05T16:21:19.689Z,19.55
2019-04-05T16:23:50.050Z,19.25
2019-04-05T16:26:20.462Z,17.02
2019-04-05T16:28:50.973Z,17.85
2019-04-05T16:31:21.549Z,17.95
2019-04-05T16:33:51.898Z,16.87
2019-04-05T16:36:22.300Z,18.02
2019-04-05T16:38:52.607Z,18.10
2019-04-05T16:41:22.954Z,16.87
2019-04-05T16:43:53.358Z,15.63
2019-04-05T16:46:23.860Z,16.67
2019-04-05T16:48:54.200Z,20.35
2019-04-05T16:51:24.548Z,18.98
2019-04-05T16:54:04.217Z,20.45
2019-04-05T16:56:34.653Z,16.85
2019-04-05T16:59:05.167Z,17.73
2019-04-05T17:01:36.628Z,16.57
2019-04-05T17:04:06.959Z,17.10
2019-04-05T17:06:37.390Z,14.73
2019-04-05T17:09:09.281Z,23.60
2019-04-05T17:11:39.706Z,16.48
2019-04-05T17:14:10.021Z,23.40
2019-04-05T17:16:40.387Z,14.98
2019-04-05T17:19:10.758Z,14.90
2019-04-05T17:21:41.098Z,18.20
2019-04-05T17:24:12.521Z,21.60
2019-04-05T17:26:42.945Z,19.73
2019-04-05T17:29:13.290Z,19.52
2019-04-05T17:31:43.657Z,18.23
2019-04-05T17:34:14.011Z,17.92
2019-04-05T17:36:44.438Z,17.12
2019-04-05T17:39:14.776Z,18.73
2019-04-05T17:41:45.208Z,17.40
2019-04-05T17:44:15.561Z,20.35
2019-04-05T17:46:46.050Z,23.98
2019-04-05T17:49:16.475Z,17.45
2019-04-05T17:51:47.167Z,12.73
2019-04-05T17:54:17.580Z,16.80
2019-04-05T17:56:48.228Z,14.07
2019-04-05T17:59:19.735Z,16.30
2019-04-05T18:01:50.118Z,15.50
2019-04-05T18:04:23.601Z,12.80
2019-04-05T18:06:53.941Z,12.40
2019-04-05T18:09:27.669Z,14.63
2019-04-05T18:11:57.988Z,12.82
2019-04-05T18:14:28.580Z,14.00
2019-04-05T18:16:58.926Z,19.82
2019-04-05T18:19:29.612Z,11.40
2019-04-05T18:21:59.998Z,11.22
2019-04-05T18:24:30.704Z,10.50
2019-04-05T18:27:02.247Z,12.85
2019-04-05T18:29:32.877Z,12.60
2019-04-05T18:32:03.443Z,12.18
2019-04-05T18:34:34.091Z,11.03
2019-04-05T18:37:04.685Z,14.15
2019-04-05T18:39:35.497Z,12.47
2019-04-05T18:42:07.086Z,12.20
2019-04-05T18:44:37.634Z,11.05
2019-04-05T18:47:08.313Z,12.98
2019-04-05T18:49:38.900Z,10.70
2019-04-05T18:52:09.380Z,12.98
2019-04-05T18:54:39.807Z,10.95
2019-04-05T18:57:10.201Z,11.83
2019-04-05T18:59:40.688Z,12.95
2019-04-05T19:02:11.122Z,11.53
2019-04-05T19:04:41.855Z,12.00
2019-04-05T19:07:12.393Z,10.15
2019-04-05T19:09:42.939Z,10.55
2019-04-05T19:12:13.649Z,15.15
2019-04-05T19:14:45.166Z,11.05
2019-04-05T19:17:23.950Z,11.48
2019-04-05T19:19:48.019Z,9.98
2019-04-05T19:22:18.606Z,12.20
2019-04-05T19:24:49.287Z,9.78
2019-04-05T19:27:19.904Z,10.38
2019-04-05T19:29:50.355Z,10.82
2019-04-05T19:50:06.904Z,9.25
2019-04-05T19:52:37.218Z,12.25
2019-04-05T19:55:07.689Z,11.45
2019-04-05T19:57:38.204Z,9.08
2019-04-05T20:00:10.330Z,9.85
2019-04-05T20:02:42.319Z,9.83
2019-04-05T20:05:13.222Z,13.40
2019-04-05T20:07:43.629Z,11.63
2019-04-05T20:10:14.239Z,12.15
2019-04-05T20:12:44.737Z,13.78
2019-04-05T20:15:15.524Z,14.05
2019-04-05T20:17:45.938Z,15.53
2019-04-05T20:20:16.583Z,8.73
2019-04-05T20:22:47.013Z,10.82
2019-04-05T20:25:17.334Z,14.23
2019-04-05T20:27:47.748Z,10.55
2019-04-05T20:30:18.879Z,13.93
2019-04-05T20:32:49.273Z,11.12
2019-04-05T20:35:19.680Z,14.70
2019-04-05T20:37:50.100Z,11.40
2019-04-05T20:40:20.569Z,11.53
2019-04-05T20:42:50.911Z,12.98
2019-04-05T20:45:21.286Z,11.63
2019-04-05T20:47:51.676Z,13.50
2019-04-05T20:50:22.092Z,11.30
2019-04-05T20:52:52.547Z,14.03
2019-04-05T20:55:22.952Z,11.78
2019-04-05T20:57:53.257Z,15.05
2019-04-05T21:00:23.680Z,13.18
2019-04-05T21:02:54.084Z,10.03
2019-04-05T21:05:25.501Z,11.50
2019-04-05T21:07:56.103Z,12.25
2019-04-05T21:10:26.468Z,12.53
2019-04-05T21:12:56.962Z,10.48
2019-04-05T21:15:27.395Z,13.65
2019-04-05T21:17:57.722Z,13.55
2019-04-05T21:20:28.170Z,11.45
2019-04-05T21:22:58.607Z,11.38
2019-04-05T21:25:29.012Z,12.75
2019-04-05T21:27:59.367Z,11.55
2019-04-05T21:30:29.778Z,12.80
2019-04-05T21:33:00.098Z,11.78
2019-04-05T21:35:30.510Z,13.58
2019-04-05T21:38:00.832Z,11.68
2019-04-05T21:40:31.212Z,14.20
2019-04-05T21:43:01.570Z,11.30
2019-04-05T21:45:31.977Z,13.83
2019-04-05T21:48:02.368Z,12.33
2019-04-05T21:50:32.780Z,10.78
2019-04-05T21:53:03.141Z,13.62
2019-04-05T21:55:33.497Z,12.73
2019-04-05T21:58:03.835Z,18.30
2019-04-05T22:00:53.161Z,11.97
2019-04-05T22:03:23.647Z,12.18
2019-04-05T22:05:55.017Z,13.93
2019-04-05T22:08:25.366Z,12.53
2019-04-05T22:10:55.734Z,9.95
2019-04-05T22:13:26.011Z,13.58
2019-04-05T22:15:56.278Z,14.50
2019-04-05T22:18:26.585Z,15.78
2019-04-05T22:20:56.927Z,15.55
2019-04-05T22:23:27.248Z,14.98
2019-04-05T22:25:57.804Z,12.78
2019-04-05T22:28:28.088Z,15.83
2019-04-05T22:30:58.342Z,11.80
2019-04-05T22:33:28.560Z,15.80
2019-04-05T22:35:58.886Z,13.28
2019-04-05T22:38:29.191Z,14.15
2019-04-05T22:40:59.533Z,14.50
2019-04-05T22:43:29.816Z,13.13
2019-04-05T22:46:01.529Z,15.90
2019-04-05T22:48:31.746Z,12.43
2019-04-05T22:51:02.084Z,16.50
2019-04-05T22:53:32.393Z,13.10
2019-04-05T22:56:03.197Z,13.25
2019-04-05T22:58:33.541Z,13.85
2019-04-05T23:01:03.798Z,14.33
2019-04-05T23:03:34.159Z,16.42
2019-04-05T23:06:04.505Z,16.57
2019-04-05T23:08:34.821Z,13.30
2019-04-05T23:11:05.639Z,12.55
2019-04-05T23:13:35.935Z,13.48
2019-04-05T23:16:07.234Z,13.88
2019-04-05T23:18:37.543Z,14.43
2019-04-05T23:21:07.849Z,13.15
2019-04-05T23:23:38.137Z,12.82
2019-04-05T23:26:08.392Z,14.60
2019-04-05T23:28:38.769Z,13.48
2019-04-05T23:31:09.090Z,13.80
2019-04-05T23:33:39.331Z,12.75
2019-04-05T23:36:09.673Z,14.90
2019-04-05T23:38:39.951Z,13.55
2019-04-05T23:41:10.347Z,13.20
2019-04-05T23:43:40.592Z,13.40
2019-04-05T23:46:10.983Z,13.45
2019-04-05T23:48:41.306Z,16.93
2019-04-05T23:51:11.625Z,13.43
2019-04-05T23:53:41.947Z,15.25
2019-04-05T23:56:12.216Z,16.77
2019-04-05T23:58:42.520Z,17.05
